sensor_id;sensor_type;location;lat;lon;timestamp;P1;durP1;ratioP1;P2;durP2;ratioP2
62435;SDS011;48480;50.252;18.848;2022-09-21T06:04:58;27.80;;;18.50;;
62435;SDS011;48480;50.252;18.848;2022-09-21T06:07:26;27.70;;;18.00;;
62435;SDS011;48480;50.252;18.848;2022-09-21T06:09:53;28.80;;;17.40;;
62435;SDS011;48480;50.252;18.848;2022-09-21T06:12:20;23.50;;;15.10;;
62435;SDS011;48480;50.252;18.848;2022-09-21T06:14:46;22.50;;;13.00;;
62435;SDS011;48480;50.252;18.848;2022-09-21T06:17:13;16.30;;;10.40;;
62435;SDS011;48480;50.252;18.848;2022-09-21T06:19:40;21.30;;;14.50;;
62435;SDS011;48480;50.252;18.848;2022-09-21T06:22:07;13.20;;;9.20;;
62435;SDS011;48480;50.252;18.848;2022-09-21T06:24:34;14.80;;;11.10;;
62435;SDS011;48480;50.252;18.848;2022-09-21T06:27:00;19.00;;;12.90;;
62435;SDS011;48480;50.252;18.848;2022-09-21T06:29:26;20.90;;;14.60;;
62435;SDS011;48480;50.252;18.848;2022-09-21T06:31:54;18.70;;;12.60;;
62435;SDS011;48480;50.252;18.848;2022-09-21T06:34:20;11.80;;;8.20;;
62435;SDS011;48480;50.252;18.848;2022-09-21T06:36:47;11.70;;;8.40;;
62435;SDS011;48480;50.252;18.848;2022-09-21T06:39:14;14.10;;;8.80;;
62435;SDS011;48480;50.252;18.848;2022-09-21T06:41:40;14.60;;;10.60;;
62435;SDS011;48480;50.252;18.848;2022-09-21T06:44:06;16.50;;;12.00;;
62435;SDS011;48480;50.252;18.848;2022-09-21T06:46:33;22.70;;;14.40;;
62435;SDS011;48480;50.252;18.848;2022-09-21T06:48:59;13.40;;;9.40;;
62435;SDS011;48480;50.252;18.848;2022-09-21T06:51:26;14.20;;;10.00;;
62435;SDS011;48480;50.252;18.848;2022-09-21T06:53:53;13.60;;;10.20;;
62435;SDS011;48480;50.252;18.848;2022-09-21T06:56:21;13.50;;;9.40;;
62435;SDS011;48480;50.252;18.848;2022-09-21T06:58:48;12.70;;;8.60;;
62435;SDS011;48480;50.252;18.848;2022-09-21T07:01:15;12.00;;;8.10;;
62435;SDS011;48480;50.252;18.848;2022-09-21T07:03:42;14.00;;;8.70;;
62435;SDS011;48480;50.252;18.848;2022-09-21T07:06:09;14.50;;;9.30;;
62435;SDS011;48480;50.252;18.848;2022-09-21T07:08:43;12.80;;;9.30;;
62435;SDS011;48480;50.252;18.848;2022-09-21T07:11:11;11.60;;;9.10;;
62435;SDS011;48480;50.252;18.848;2022-09-21T07:13:39;12.50;;;9.70;;
62435;SDS011;48480;50.252;18.848;2022-09-21T07:16:08;14.50;;;10.60;;
62435;SDS011;48480;50.252;18.848;2022-09-21T07:18:35;13.20;;;10.00;;
62435;SDS011;48480;50.252;18.848;2022-09-21T07:21:06;12.00;;;8.30;;
62435;SDS011;48480;50.252;18.848;2022-09-21T07:23:34;15.70;;;10.30;;
62435;SDS011;48480;50.252;18.848;2022-09-21T07:26:03;12.50;;;7.00;;
62435;SDS011;48480;50.252;18.848;2022-09-21T07:28:34;11.90;;;8.30;;
62435;SDS011;48480;50.252;18.848;2022-09-21T07:31:08;14.90;;;9.90;;
62435;SDS011;48480;50.252;18.848;2022-09-21T07:33:39;16.90;;;11.70;;
62435;SDS011;48480;50.252;18.848;2022-09-21T07:36:07;13.70;;;9.40;;
62435;SDS011;48480;50.252;18.848;2022-09-21T07:38:41;10.10;;;7.10;;
62435;SDS011;48480;50.252;18.848;2022-09-21T07:41:10;12.30;;;7.10;;
62435;SDS011;48480;50.252;18.848;2022-09-21T07:43:38;9.00;;;6.30;;
62435;SDS011;48480;50.252;18.848;2022-09-21T07:46:07;7.80;;;5.40;;
62435;SDS011;48480;50.252;18.848;2022-09-21T07:48:36;8.70;;;5.90;;
62435;SDS011;48480;50.252;18.848;2022-09-21T07:51:03;8.80;;;6.30;;
62435;SDS011;48480;50.252;18.848;2022-09-21T07:53:36;8.10;;;6.00;;
62435;SDS011;48480;50.252;18.848;2022-09-21T07:56:13;8.00;;;6.50;;
62435;SDS011;48480;50.252;18.848;2022-09-21T07:58:42;9.70;;;6.40;;
62435;SDS011;48480;50.252;18.848;2022-09-21T08:01:34;9.40;;;5.80;;
62435;SDS011;48480;50.252;18.848;2022-09-21T08:04:03;7.50;;;5.50;;
62435;SDS011;48480;50.252;18.848;2022-09-21T08:06:31;9.40;;;6.80;;
62435;SDS011;48480;50.252;18.848;2022-09-21T08:09:02;8.80;;;6.40;;
62435;SDS011;48480;50.252;18.848;2022-09-21T08:11:31;7.10;;;5.80;;
62435;SDS011;48480;50.252;18.848;2022-09-21T08:14:00;8.20;;;6.30;;
62435;SDS011;48480;50.252;18.848;2022-09-21T08:16:28;7.70;;;5.70;;
62435;SDS011;48480;50.252;18.848;2022-09-21T08:18:55;8.40;;;5.90;;
62435;SDS011;48480;50.252;18.848;2022-09-21T08:21:22;9.10;;;6.80;;
62435;SDS011;48480;50.252;18.848;2022-09-21T08:23:49;9.00;;;6.00;;
62435;SDS011;48480;50.252;18.848;2022-09-21T08:26:17;9.70;;;7.30;;
62435;SDS011;48480;50.252;18.848;2022-09-21T08:28:48;11.70;;;8.90;;
62435;SDS011;48480;50.252;18.848;2022-09-21T08:31:18;9.40;;;7.40;;
62435;SDS011;48480;50.252;18.848;2022-09-21T08:33:47;9.40;;;6.40;;
62435;SDS011;48480;50.252;18.848;2022-09-21T08:36:15;9.10;;;5.60;;
62435;SDS011;48480;50.252;18.848;2022-09-21T08:38:42;11.10;;;7.30;;
62435;SDS011;48480;50.252;18.848;2022-09-21T08:41:34;11.30;;;7.40;;
62435;SDS011;48480;50.252;18.848;2022-09-21T08:44:27;13.00;;;8.60;;
62435;SDS011;48480;50.252;18.848;2022-09-21T08:47:02;18.00;;;12.40;;
62435;SDS011;48480;50.252;18.848;2022-09-21T08:49:33;13.10;;;9.20;;
62435;SDS011;48480;50.252;18.848;2022-09-21T08:52:07;10.50;;;8.40;;
62435;SDS011;48480;50.252;18.848;2022-09-21T08:54:43;10.90;;;9.20;;
62435;SDS011;48480;50.252;18.848;2022-09-21T08:57:14;10.20;;;7.90;;
62435;SDS011;48480;50.252;18.848;2022-09-21T08:59:44;7.80;;;5.80;;
62435;SDS011;48480;50.252;18.848;2022-09-21T09:02:21;9.00;;;6.40;;
62435;SDS011;48480;50.252;18.848;2022-09-21T09:12:45;7.30;;;5.70;;
62435;SDS011;48480;50.252;18.848;2022-09-21T09:20:45;6.50;;;5.00;;
62435;SDS011;48480;50.252;18.848;2022-09-21T09:23:25;7.00;;;5.60;;
62435;SDS011;48480;50.252;18.848;2022-09-21T09:26:00;8.20;;;5.20;;
62435;SDS011;48480;50.252;18.848;2022-09-21T09:36:58;8.40;;;5.80;;
62435;SDS011;48480;50.252;18.848;2022-09-21T09:39:31;6.50;;;4.70;;
62435;SDS011;48480;50.252;18.848;2022-09-21T09:47:46;6.50;;;3.80;;
62435;SDS011;48480;50.252;18.848;2022-09-21T09:50:35;12.20;;;9.50;;
62435;SDS011;48480;50.252;18.848;2022-09-21T09:53:06;7.90;;;5.70;;
62435;SDS011;48480;50.252;18.848;2022-09-21T09:55:41;8.80;;;6.00;;
62435;SDS011;48480;50.252;18.848;2022-09-21T09:58:19;7.00;;;4.40;;
62435;SDS011;48480;50.252;18.848;2022-09-21T10:00:52;6.20;;;4.60;;
62435;SDS011;48480;50.252;18.848;2022-09-21T10:03:21;10.40;;;7.00;;
62435;SDS011;48480;50.252;18.848;2022-09-21T10:05:51;5.60;;;5.00;;
62435;SDS011;48480;50.252;18.848;2022-09-21T10:11:04;7.90;;;5.20;;
62435;SDS011;48480;50.252;18.848;2022-09-21T10:13:32;5.90;;;4.20;;
62435;SDS011;48480;50.252;18.848;2022-09-21T10:16:13;10.30;;;6.70;;
62435;SDS011;48480;50.252;18.848;2022-09-21T10:24:24;9.50;;;4.80;;
62435;SDS011;48480;50.252;18.848;2022-09-21T10:26:53;8.80;;;6.40;;
62435;SDS011;48480;50.252;18.848;2022-09-21T10:37:37;8.00;;;6.20;;
62435;SDS011;48480;50.252;18.848;2022-09-21T10:42:41;5.80;;;4.90;;
62435;SDS011;48480;50.252;18.848;2022-09-21T10:45:17;6.80;;;5.60;;
62435;SDS011;48480;50.252;18.848;2022-09-21T10:50:23;8.10;;;4.50;;
62435;SDS011;48480;50.252;18.848;2022-09-21T10:52:54;4.00;;;2.90;;
62435;SDS011;48480;50.252;18.848;2022-09-21T10:55:24;4.20;;;3.20;;
62435;SDS011;48480;50.252;18.848;2022-09-21T10:57:52;6.50;;;4.60;;
62435;SDS011;48480;50.252;18.848;2022-09-21T11:03:03;11.90;;;6.30;;
62435;SDS011;48480;50.252;18.848;2022-09-21T11:05:50;16.50;;;8.40;;
62435;SDS011;48480;50.252;18.848;2022-09-21T11:08:29;14.30;;;7.40;;
62435;SDS011;48480;50.252;18.848;2022-09-21T11:19:30;8.90;;;5.40;;
62435;SDS011;48480;50.252;18.848;2022-09-21T11:25:17;8.80;;;4.40;;
62435;SDS011;48480;50.252;18.848;2022-09-21T11:27:43;7.00;;;4.00;;
62435;SDS011;48480;50.252;18.848;2022-09-21T11:30:14;8.80;;;4.40;;
62435;SDS011;48480;50.252;18.848;2022-09-21T11:37:46;3.80;;;3.20;;
62435;SDS011;48480;50.252;18.848;2022-09-21T11:40:23;5.20;;;3.90;;
62435;SDS011;48480;50.252;18.848;2022-09-21T11:52:03;10.20;;;5.50;;
62435;SDS011;48480;50.252;18.848;2022-09-21T11:57:38;7.30;;;4.20;;
62435;SDS011;48480;50.252;18.848;2022-09-21T12:00:16;6.40;;;4.10;;
62435;SDS011;48480;50.252;18.848;2022-09-21T12:21:45;8.40;;;5.30;;
62435;SDS011;48480;50.252;18.848;2022-09-21T12:24:25;4.70;;;3.10;;
62435;SDS011;48480;50.252;18.848;2022-09-21T12:27:08;6.40;;;3.80;;
62435;SDS011;48480;50.252;18.848;2022-09-21T12:29:44;4.80;;;3.00;;
62435;SDS011;48480;50.252;18.848;2022-09-21T12:35:31;4.40;;;3.20;;
62435;SDS011;48480;50.252;18.848;2022-09-21T12:40:42;6.20;;;4.10;;
62435;SDS011;48480;50.252;18.848;2022-09-21T12:43:28;7.10;;;4.20;;
62435;SDS011;48480;50.252;18.848;2022-09-21T12:49:00;5.00;;;3.30;;
62435;SDS011;48480;50.252;18.848;2022-09-21T12:51:59;6.60;;;3.40;;
62435;SDS011;48480;50.252;18.848;2022-09-21T12:54:39;6.10;;;3.90;;
62435;SDS011;48480;50.252;18.848;2022-09-21T12:57:28;5.20;;;3.70;;
62435;SDS011;48480;50.252;18.848;2022-09-21T13:00:21;8.20;;;3.50;;
62435;SDS011;48480;50.252;18.848;2022-09-21T13:09:04;3.20;;;2.20;;
62435;SDS011;48480;50.252;18.848;2022-09-21T13:11:50;4.00;;;2.60;;
62435;SDS011;48480;50.252;18.848;2022-09-21T13:14:33;4.90;;;2.60;;
62435;SDS011;48480;50.252;18.848;2022-09-21T13:17:24;4.30;;;2.70;;
62435;SDS011;48480;50.252;18.848;2022-09-21T13:20:17;4.00;;;2.70;;
62435;SDS011;48480;50.252;18.848;2022-09-21T13:22:56;4.70;;;2.70;;
62435;SDS011;48480;50.252;18.848;2022-09-21T13:30:48;5.50;;;3.10;;
62435;SDS011;48480;50.252;18.848;2022-09-21T13:36:43;4.20;;;2.80;;
62435;SDS011;48480;50.252;18.848;2022-09-21T13:39:23;4.50;;;2.80;;
62435;SDS011;48480;50.252;18.848;2022-09-21T13:41:52;3.10;;;2.30;;
62435;SDS011;48480;50.252;18.848;2022-09-21T13:44:36;3.20;;;2.30;;
62435;SDS011;48480;50.252;18.848;2022-09-21T13:47:07;4.40;;;2.40;;
62435;SDS011;48480;50.252;18.848;2022-09-21T13:49:39;3.80;;;2.70;;
62435;SDS011;48480;50.252;18.848;2022-09-21T14:13:30;5.10;;;2.80;;
62435;SDS011;48480;50.252;18.848;2022-09-21T14:24:46;5.50;;;3.80;;
62435;SDS011;48480;50.252;18.848;2022-09-21T14:32:49;5.40;;;2.80;;
62435;SDS011;48480;50.252;18.848;2022-09-21T14:35:39;3.80;;;2.20;;
62435;SDS011;48480;50.252;18.848;2022-09-21T14:38:23;7.60;;;3.20;;
62435;SDS011;48480;50.252;18.848;2022-09-21T14:41:04;4.70;;;2.70;;
62435;SDS011;48480;50.252;18.848;2022-09-21T14:43:36;4.70;;;2.50;;
62435;SDS011;48480;50.252;18.848;2022-09-21T14:49:10;4.00;;;2.30;;
62435;SDS011;48480;50.252;18.848;2022-09-21T15:00:39;6.20;;;3.30;;
62435;SDS011;48480;50.252;18.848;2022-09-21T15:06:14;9.10;;;5.50;;
62435;SDS011;48480;50.252;18.848;2022-09-21T15:18:13;4.40;;;3.00;;
62435;SDS011;48480;50.252;18.848;2022-09-21T15:21:15;4.30;;;2.80;;
62435;SDS011;48480;50.252;18.848;2022-09-21T15:23:51;6.20;;;3.10;;
62435;SDS011;48480;50.252;18.848;2022-09-21T15:26:22;5.20;;;3.40;;
62435;SDS011;48480;50.252;18.848;2022-09-21T15:28:55;7.20;;;3.30;;
62435;SDS011;48480;50.252;18.848;2022-09-21T15:31:36;6.10;;;4.40;;
62435;SDS011;48480;50.252;18.848;2022-09-21T15:34:05;5.50;;;4.40;;
62435;SDS011;48480;50.252;18.848;2022-09-21T15:36:36;7.50;;;4.80;;
62435;SDS011;48480;50.252;18.848;2022-09-21T15:39:05;10.10;;;6.40;;
62435;SDS011;48480;50.252;18.848;2022-09-21T15:44:14;9.40;;;5.90;;
62435;SDS011;48480;50.252;18.848;2022-09-21T15:46:49;14.10;;;7.50;;
62435;SDS011;48480;50.252;18.848;2022-09-21T15:49:26;15.80;;;7.20;;
62435;SDS011;48480;50.252;18.848;2022-09-21T15:51:59;14.10;;;7.50;;
62435;SDS011;48480;50.252;18.848;2022-09-21T15:57:27;12.30;;;7.70;;
62435;SDS011;48480;50.252;18.848;2022-09-21T16:00:16;12.00;;;6.60;;
62435;SDS011;48480;50.252;18.848;2022-09-21T16:02:49;12.70;;;7.50;;
62435;SDS011;48480;50.252;18.848;2022-09-21T16:05:21;14.80;;;9.20;;
62435;SDS011;48480;50.252;18.848;2022-09-21T16:08:02;22.30;;;12.40;;
62435;SDS011;48480;50.252;18.848;2022-09-21T16:10:38;26.10;;;15.30;;
62435;SDS011;48480;50.252;18.848;2022-09-21T16:13:09;18.20;;;10.10;;
62435;SDS011;48480;50.252;18.848;2022-09-21T16:16:03;14.40;;;7.50;;
62435;SDS011;48480;50.252;18.848;2022-09-21T16:21:12;11.90;;;7.10;;
62435;SDS011;48480;50.252;18.848;2022-09-21T16:23:54;12.30;;;7.20;;
62435;SDS011;48480;50.252;18.848;2022-09-21T16:26:30;14.30;;;9.00;;
62435;SDS011;48480;50.252;18.848;2022-09-21T16:29:15;9.70;;;5.90;;
62435;SDS011;48480;50.252;18.848;2022-09-21T16:31:51;10.30;;;6.30;;
62435;SDS011;48480;50.252;18.848;2022-09-21T16:34:39;6.20;;;4.80;;
62435;SDS011;48480;50.252;18.848;2022-09-21T16:39:55;9.60;;;6.70;;
62435;SDS011;48480;50.252;18.848;2022-09-21T16:42:24;8.10;;;5.60;;
62435;SDS011;48480;50.252;18.848;2022-09-21T16:44:58;10.40;;;6.40;;
62435;SDS011;48480;50.252;18.848;2022-09-21T16:47:26;12.00;;;6.70;;
62435;SDS011;48480;50.252;18.848;2022-09-21T16:49:56;13.10;;;6.80;;
62435;SDS011;48480;50.252;18.848;2022-09-21T16:52:30;17.10;;;9.90;;
62435;SDS011;48480;50.252;18.848;2022-09-21T16:54:56;18.80;;;9.60;;
62435;SDS011;48480;50.252;18.848;2022-09-21T16:57:31;19.60;;;11.00;;
62435;SDS011;48480;50.252;18.848;2022-09-21T16:59:59;21.70;;;12.60;;
62435;SDS011;48480;50.252;18.848;2022-09-21T17:02:26;16.80;;;10.00;;
62435;SDS011;48480;50.252;18.848;2022-09-21T17:04:53;18.50;;;11.20;;
62435;SDS011;48480;50.252;18.848;2022-09-21T17:07:20;17.30;;;12.60;;
62435;SDS011;48480;50.252;18.848;2022-09-21T17:09:47;17.00;;;12.70;;
62435;SDS011;48480;50.252;18.848;2022-09-21T17:12:16;18.20;;;12.50;;
62435;SDS011;48480;50.252;18.848;2022-09-21T17:14:44;15.30;;;11.40;;
62435;SDS011;48480;50.252;18.848;2022-09-21T17:17:12;16.30;;;12.10;;
62435;SDS011;48480;50.252;18.848;2022-09-21T17:19:46;19.70;;;12.60;;
62435;SDS011;48480;50.252;18.848;2022-09-21T17:22:15;19.30;;;12.70;;
62435;SDS011;48480;50.252;18.848;2022-09-21T17:24:43;16.00;;;12.30;;
62435;SDS011;48480;50.252;18.848;2022-09-21T17:27:15;20.90;;;12.30;;
62435;SDS011;48480;50.252;18.848;2022-09-21T17:29:43;18.90;;;13.70;;
62435;SDS011;48480;50.252;18.848;2022-09-21T17:32:15;21.40;;;15.50;;
62435;SDS011;48480;50.252;18.848;2022-09-21T17:34:48;24.60;;;18.60;;
62435;SDS011;48480;50.252;18.848;2022-09-21T17:37:20;33.80;;;26.70;;
62435;SDS011;48480;50.252;18.848;2022-09-21T17:39:47;32.00;;;26.50;;
62435;SDS011;48480;50.252;18.848;2022-09-21T17:42:16;41.10;;;30.30;;
62435;SDS011;48480;50.252;18.848;2022-09-21T17:44:53;47.20;;;30.70;;
62435;SDS011;48480;50.252;18.848;2022-09-21T17:47:54;52.20;;;29.50;;
62435;SDS011;48480;50.252;18.848;2022-09-21T17:50:25;41.50;;;25.20;;
62435;SDS011;48480;50.252;18.848;2022-09-21T17:52:59;35.50;;;24.80;;
62435;SDS011;48480;50.252;18.848;2022-09-21T17:55:48;34.50;;;22.70;;
62435;SDS011;48480;50.252;18.848;2022-09-21T18:04:11;51.50;;;30.40;;
62435;SDS011;48480;50.252;18.848;2022-09-21T18:06:41;50.00;;;29.40;;
62435;SDS011;48480;50.252;18.848;2022-09-21T18:09:18;96.60;;;43.80;;
62435;SDS011;48480;50.252;18.848;2022-09-21T18:14:41;157.20;;;66.70;;
62435;SDS011;48480;50.252;18.848;2022-09-21T18:23:18;119.80;;;58.70;;
62435;SDS011;48480;50.252;18.848;2022-09-21T18:25:50;74.90;;;49.00;;
62435;SDS011;48480;50.252;18.848;2022-09-21T18:28:39;95.70;;;57.50;;
62435;SDS011;48480;50.252;18.848;2022-09-21T18:34:06;75.50;;;50.30;;
62435;SDS011;48480;50.252;18.848;2022-09-21T18:36:56;46.50;;;32.10;;
62435;SDS011;48480;50.252;18.848;2022-09-21T18:42:59;45.80;;;31.60;;
62435;SDS011;48480;50.252;18.848;2022-09-21T18:48:50;45.90;;;32.20;;
62435;SDS011;48480;50.252;18.848;2022-09-21T18:51:25;46.10;;;34.10;;
62435;SDS011;48480;50.252;18.848;2022-09-21T18:54:04;40.90;;;30.70;;
62435;SDS011;48480;50.252;18.848;2022-09-21T18:56:35;47.40;;;34.30;;
62435;SDS011;48480;50.252;18.848;2022-09-21T18:59:04;45.50;;;32.40;;
62435;SDS011;48480;50.252;18.848;2022-09-21T19:01:32;41.50;;;30.30;;
62435;SDS011;48480;50.252;18.848;2022-09-21T19:04:00;50.50;;;38.40;;
62435;SDS011;48480;50.252;18.848;2022-09-21T19:12:00;71.80;;;52.10;;
62435;SDS011;48480;50.252;18.848;2022-09-21T19:15:12;55.20;;;42.00;;
62435;SDS011;48480;50.252;18.848;2022-09-21T19:21:19;46.80;;;34.30;;
62435;SDS011;48480;50.252;18.848;2022-09-21T19:24:05;41.60;;;29.60;;
62435;SDS011;48480;50.252;18.848;2022-09-21T19:27:24;44.10;;;32.70;;
62435;SDS011;48480;50.252;18.848;2022-09-21T19:30:26;43.20;;;29.80;;
62435;SDS011;48480;50.252;18.848;2022-09-21T19:33:05;42.80;;;31.10;;
62435;SDS011;48480;50.252;18.848;2022-09-21T19:35:53;51.30;;;33.20;;
62435;SDS011;48480;50.252;18.848;2022-09-21T19:38:31;44.60;;;31.20;;
62435;SDS011;48480;50.252;18.848;2022-09-21T19:41:02;44.00;;;30.10;;
62435;SDS011;48480;50.252;18.848;2022-09-21T19:44:00;53.40;;;36.70;;
62435;SDS011;48480;50.252;18.848;2022-09-21T19:49:50;39.30;;;27.30;;
62435;SDS011;48480;50.252;18.848;2022-09-21T19:52:29;42.90;;;29.30;;
62435;SDS011;48480;50.252;18.848;2022-09-21T19:55:10;39.40;;;31.40;;
62435;SDS011;48480;50.252;18.848;2022-09-21T19:58:20;36.20;;;27.00;;
62435;SDS011;48480;50.252;18.848;2022-09-21T20:01:09;54.20;;;38.20;;
62435;SDS011;48480;50.252;18.848;2022-09-21T20:03:39;54.30;;;34.60;;
62435;SDS011;48480;50.252;18.848;2022-09-21T20:06:41;45.10;;;28.80;;
62435;SDS011;48480;50.252;18.848;2022-09-21T20:09:31;40.50;;;27.80;;
62435;SDS011;48480;50.252;18.848;2022-09-21T20:12:23;39.30;;;25.50;;
62435;SDS011;48480;50.252;18.848;2022-09-21T20:15:04;40.80;;;29.60;;
62435;SDS011;48480;50.252;18.848;2022-09-21T20:17:44;34.40;;;24.90;;
62435;SDS011;48480;50.252;18.848;2022-09-21T20:20:29;33.70;;;23.80;;
62435;SDS011;48480;50.252;18.848;2022-09-21T20:22:56;28.30;;;18.70;;
62435;SDS011;48480;50.252;18.848;2022-09-21T20:25:29;31.30;;;21.60;;
62435;SDS011;48480;50.252;18.848;2022-09-21T20:28:00;28.20;;;19.20;;
62435;SDS011;48480;50.252;18.848;2022-09-21T20:30:29;27.50;;;17.20;;
62435;SDS011;48480;50.252;18.848;2022-09-21T20:32:59;28.00;;;18.80;;
62435;SDS011;48480;50.252;18.848;2022-09-21T20:35:32;28.40;;;18.60;;
62435;SDS011;48480;50.252;18.848;2022-09-21T20:37:59;25.30;;;16.90;;
62435;SDS011;48480;50.252;18.848;2022-09-21T20:40:26;24.70;;;16.80;;
62435;SDS011;48480;50.252;18.848;2022-09-21T20:42:54;29.90;;;17.80;;
62435;SDS011;48480;50.252;18.848;2022-09-21T20:45:22;22.50;;;16.00;;
62435;SDS011;48480;50.252;18.848;2022-09-21T20:47:50;25.60;;;16.90;;
62435;SDS011;48480;50.252;18.848;2022-09-21T20:50:18;23.50;;;15.30;;
62435;SDS011;48480;50.252;18.848;2022-09-21T20:52:46;20.80;;;13.50;;
62435;SDS011;48480;50.252;18.848;2022-09-21T20:55:17;17.10;;;12.00;;
62435;SDS011;48480;50.252;18.848;2022-09-21T20:57:45;17.20;;;12.00;;
62435;SDS011;48480;50.252;18.848;2022-09-21T21:00:13;18.60;;;11.80;;
62435;SDS011;48480;50.252;18.848;2022-09-21T21:02:41;20.00;;;14.20;;
62435;SDS011;48480;50.252;18.848;2022-09-21T21:05:12;22.70;;;14.90;;
62435;SDS011;48480;50.252;18.848;2022-09-21T21:07:39;22.30;;;15.70;;
62435;SDS011;48480;50.252;18.848;2022-09-21T21:10:09;23.90;;;15.90;;
62435;SDS011;48480;50.252;18.848;2022-09-21T21:12:40;23.10;;;15.40;;
62435;SDS011;48480;50.252;18.848;2022-09-21T21:15:07;22.10;;;14.50;;
62435;SDS011;48480;50.252;18.848;2022-09-21T21:17:35;20.20;;;13.10;;
62435;SDS011;48480;50.252;18.848;2022-09-21T21:20:02;18.60;;;12.10;;
62435;SDS011;48480;50.252;18.848;2022-09-21T21:22:35;17.20;;;11.60;;
62435;SDS011;48480;50.252;18.848;2022-09-21T21:25:02;17.90;;;12.60;;
62435;SDS011;48480;50.252;18.848;2022-09-21T21:27:29;19.10;;;12.40;;
62435;SDS011;48480;50.252;18.848;2022-09-21T21:29:56;19.00;;;12.50;;
62435;SDS011;48480;50.252;18.848;2022-09-21T21:32:24;18.60;;;12.80;;
62435;SDS011;48480;50.252;18.848;2022-09-21T21:34:55;19.30;;;12.80;;
62435;SDS011;48480;50.252;18.848;2022-09-21T21:37:23;18.00;;;11.50;;
62435;SDS011;48480;50.252;18.848;2022-09-21T21:39:51;20.20;;;13.00;;
62435;SDS011;48480;50.252;18.848;2022-09-21T21:42:19;17.50;;;11.30;;
62435;SDS011;48480;50.252;18.848;2022-09-21T21:44:47;17.80;;;11.50;;
62435;SDS011;48480;50.252;18.848;2022-09-21T21:47:16;16.00;;;11.10;;
62435;SDS011;48480;50.252;18.848;2022-09-21T21:49:43;21.40;;;12.70;;
62435;SDS011;48480;50.252;18.848;2022-09-21T21:52:09;18.80;;;12.10;;
62435;SDS011;48480;50.252;18.848;2022-09-21T21:54:38;17.50;;;11.80;;
62435;SDS011;48480;50.252;18.848;2022-09-21T21:57:10;18.70;;;12.50;;
62435;SDS011;48480;50.252;18.848;2022-09-21T21:59:46;18.90;;;13.60;;
62435;SDS011;48480;50.252;18.848;2022-09-21T22:02:13;15.90;;;10.90;;
62435;SDS011;48480;50.252;18.848;2022-09-21T22:04:58;15.20;;;10.50;;
62435;SDS011;48480;50.252;18.848;2022-09-21T22:07:42;14.40;;;10.50;;
62435;SDS011;48480;50.252;18.848;2022-09-21T22:10:26;17.40;;;11.60;;
62435;SDS011;48480;50.252;18.848;2022-09-21T22:13:10;16.20;;;11.10;;
62435;SDS011;48480;50.252;18.848;2022-09-21T22:15:55;19.80;;;14.80;;
62435;SDS011;48480;50.252;18.848;2022-09-21T22:18:47;20.50;;;14.80;;
62435;SDS011;48480;50.252;18.848;2022-09-21T22:21:33;20.70;;;14.60;;
62435;SDS011;48480;50.252;18.848;2022-09-21T22:24:23;19.70;;;13.50;;
62435;SDS011;48480;50.252;18.848;2022-09-21T22:27:13;19.50;;;13.30;;
62435;SDS011;48480;50.252;18.848;2022-09-21T22:29:57;20.40;;;12.60;;
62435;SDS011;48480;50.252;18.848;2022-09-21T22:32:41;21.10;;;12.90;;
62435;SDS011;48480;50.252;18.848;2022-09-21T22:35:25;21.50;;;14.50;;
62435;SDS011;48480;50.252;18.848;2022-09-21T22:38:09;22.70;;;14.90;;
62435;SDS011;48480;50.252;18.848;2022-09-21T22:40:54;20.70;;;14.60;;
62435;SDS011;48480;50.252;18.848;2022-09-21T22:43:39;22.10;;;15.30;;
62435;SDS011;48480;50.252;18.848;2022-09-21T22:46:24;19.90;;;13.50;;
62435;SDS011;48480;50.252;18.848;2022-09-21T22:49:09;20.70;;;13.90;;
62435;SDS011;48480;50.252;18.848;2022-09-21T22:51:53;20.90;;;13.10;;
62435;SDS011;48480;50.252;18.848;2022-09-21T22:54:37;22.60;;;13.00;;
62435;SDS011;48480;50.252;18.848;2022-09-21T22:57:21;20.60;;;13.20;;
62435;SDS011;48480;50.252;18.848;2022-09-21T23:00:05;20.40;;;13.70;;
62435;SDS011;48480;50.252;18.848;2022-09-21T23:02:53;19.70;;;12.70;;
62435;SDS011;48480;50.252;18.848;2022-09-21T23:05:38;19.40;;;12.60;;
62435;SDS011;48480;50.252;18.848;2022-09-21T23:08:23;20.30;;;13.90;;
62435;SDS011;48480;50.252;18.848;2022-09-21T23:11:17;21.60;;;13.10;;
62435;SDS011;48480;50.252;18.848;2022-09-21T23:14:06;17.90;;;11.50;;
62435;SDS011;48480;50.252;18.848;2022-09-21T23:16:51;16.70;;;11.30;;
62435;SDS011;48480;50.252;18.848;2022-09-21T23:19:36;16.20;;;11.70;;
62435;SDS011;48480;50.252;18.848;2022-09-21T23:22:20;17.10;;;11.90;;
62435;SDS011;48480;50.252;18.848;2022-09-21T23:25:04;17.80;;;11.30;;
62435;SDS011;48480;50.252;18.848;2022-09-21T23:27:49;16.00;;;11.20;;
62435;SDS011;48480;50.252;18.848;2022-09-21T23:30:33;16.40;;;10.80;;
62435;SDS011;48480;50.252;18.848;2022-09-21T23:33:19;17.50;;;9.30;;
62435;SDS011;48480;50.252;18.848;2022-09-21T23:36:03;15.20;;;9.20;;
62435;SDS011;48480;50.252;18.848;2022-09-21T23:38:49;13.60;;;8.80;;
62435;SDS011;48480;50.252;18.848;2022-09-21T23:41:34;12.90;;;8.60;;
62435;SDS011;48480;50.252;18.848;2022-09-21T23:44:19;13.20;;;9.20;;
62435;SDS011;48480;50.252;18.848;2022-09-21T23:47:03;14.40;;;9.40;;
62435;SDS011;48480;50.252;18.848;2022-09-21T23:49:47;16.90;;;11.00;;
62435;SDS011;48480;50.252;18.848;2022-09-21T23:52:31;16.50;;;12.30;;
62435;SDS011;48480;50.252;18.848;2022-09-21T23:55:16;18.60;;;12.40;;
62435;SDS011;48480;50.252;18.848;2022-09-21T23:58:00;21.00;;;14.10;;
